createdAt,value
2022-10-24T00:00:39.069Z,17.41
2022-10-24T00:01:39.072Z,17.29
2022-10-24T00:02:39.197Z,17.23
2022-10-24T00:03:39.157Z,17.36
2022-10-24T00:04:39.746Z,17.41
2022-10-24T00:05:39.261Z,17.40
2022-10-24T00:06:39.300Z,17.30
2022-10-24T00:07:39.396Z,17.22
2022-10-24T00:08:39.397Z,17.23
2022-10-24T00:09:39.453Z,17.22
2022-10-24T00:10:40.252Z,17.15
2022-10-24T00:11:39.545Z,17.07
2022-10-24T00:12:39.622Z,17.03
2022-10-24T00:13:39.647Z,17.03
2022-10-24T00:14:39.697Z,17.00
2022-10-24T00:15:40.256Z,17.04
2022-10-24T00:16:39.820Z,17.03
2022-10-24T00:17:39.842Z,16.92
2022-10-24T00:18:39.899Z,16.85
2022-10-24T00:19:40.754Z,16.96
2022-10-24T00:20:40.013Z,16.89
2022-10-24T00:21:40.068Z,16.85
2022-10-24T00:22:40.124Z,16.83
2022-10-24T00:23:40.155Z,16.65
2022-10-24T00:24:40.196Z,16.67
2022-10-24T00:25:40.240Z,16.58
2022-10-24T00:26:40.290Z,16.56
2022-10-24T00:27:40.362Z,16.49
2022-10-24T00:28:40.385Z,16.48
2022-10-24T00:29:40.469Z,16.59
2022-10-24T00:30:40.482Z,16.77
2022-10-24T00:31:40.544Z,16.89
2022-10-24T00:32:40.581Z,16.98
2022-10-24T00:33:41.256Z,17.00
2022-10-24T00:34:40.706Z,17.14
2022-10-24T00:35:41.257Z,17.11
2022-10-24T00:36:40.782Z,17.00
2022-10-24T00:37:41.041Z,16.98
2022-10-24T00:38:40.880Z,16.92
2022-10-24T00:39:40.957Z,16.90
2022-10-24T00:40:40.976Z,16.80
2022-10-24T00:41:41.031Z,16.77
2022-10-24T00:42:41.078Z,16.71
2022-10-24T00:43:41.129Z,16.74
2022-10-24T00:44:41.203Z,16.55
2022-10-24T00:45:41.233Z,16.55
2022-10-24T00:46:41.270Z,16.65
2022-10-24T00:47:42.549Z,16.62
2022-10-24T00:48:42.258Z,16.53
2022-10-24T00:49:41.449Z,16.55
2022-10-24T00:50:41.474Z,16.56
2022-10-24T00:51:41.518Z,16.62
2022-10-24T00:52:42.260Z,16.58
2022-10-24T00:53:41.618Z,16.55
2022-10-24T00:54:41.692Z,16.56
2022-10-24T00:55:42.262Z,16.52
2022-10-24T00:56:41.763Z,16.55
2022-10-24T00:57:42.144Z,16.55
2022-10-24T00:58:41.968Z,16.52
2022-10-24T00:59:42.292Z,16.44
2022-10-24T01:00:42.275Z,16.31
2022-10-24T01:01:42.112Z,16.34
2022-10-24T01:02:42.446Z,16.37
2022-10-24T01:03:42.335Z,16.42
2022-10-24T01:04:42.163Z,16.31
